createdAt,value
2018-12-14T00:01:48.890Z,25.37
2018-12-14T00:04:27.487Z,24.60
2018-12-14T00:07:01.809Z,23.47
2018-12-14T00:09:34.992Z,21.43
2018-12-14T00:12:07.611Z,23.40
2018-12-14T00:14:40.132Z,25.73
2018-12-14T00:17:14.027Z,24.77
2018-12-14T00:19:47.405Z,24.13
2018-12-14T00:22:21.170Z,24.77
2018-12-14T00:24:52.651Z,24.90
2018-12-14T00:27:26.176Z,25.13
2018-12-14T00:29:59.392Z,25.57
2018-12-14T00:32:32.334Z,25.03
2018-12-14T00:35:05.859Z,26.03
2018-12-14T00:37:38.913Z,25.80
2018-12-14T00:40:16.993Z,25.47
2018-12-14T00:42:49.428Z,29.57
2018-12-14T00:45:21.769Z,26.57
2018-12-14T00:47:54.700Z,28.53
2018-12-14T00:50:27.817Z,24.23
2018-12-14T00:53:00.980Z,27.30
2018-12-14T00:55:37.946Z,26.57
2018-12-14T00:58:10.225Z,26.60
2018-12-14T01:00:47.421Z,26.70
2018-12-14T01:03:19.735Z,27.07
2018-12-14T01:05:52.764Z,25.83
2018-12-14T01:08:29.762Z,26.87
2018-12-14T01:11:02.740Z,27.37
2018-12-14T01:13:35.265Z,25.30
2018-12-14T01:16:07.579Z,26.97
2018-12-14T01:18:44.268Z,26.23
2018-12-14T01:21:20.491Z,27.77
2018-12-14T01:23:56.532Z,27.43
2018-12-14T01:26:29.967Z,27.23
2018-12-14T01:29:06.887Z,26.30
2018-12-14T01:31:43.145Z,29.47
2018-12-14T01:34:15.420Z,26.30
2018-12-14T01:36:47.760Z,26.63
2018-12-14T01:39:24.226Z,26.83
2018-12-14T01:42:04.855Z,25.97
2018-12-14T01:44:35.483Z,28.87
2018-12-14T01:47:08.587Z,29.53
2018-12-14T01:49:41.679Z,31.53
2018-12-14T01:52:14.743Z,28.67
2018-12-14T01:54:47.161Z,27.20
2018-12-14T01:57:24.467Z,28.50
2018-12-14T01:59:57.256Z,28.80
2018-12-14T02:02:29.785Z,27.50
2018-12-14T02:05:03.029Z,28.43
2018-12-14T02:07:35.622Z,27.10
2018-12-14T02:10:08.230Z,27.23
2018-12-14T02:12:39.181Z,29.87
2018-12-14T02:15:11.983Z,28.97
2018-12-14T02:17:48.214Z,29.37
2018-12-14T02:20:19.260Z,30.43
2018-12-14T02:22:52.250Z,26.17
2018-12-14T02:25:25.313Z,26.30
2018-12-14T02:27:58.784Z,29.37
2018-12-14T02:30:45.281Z,29.10
2018-12-14T02:33:22.603Z,26.77
2018-12-14T02:35:58.844Z,25.37
2018-12-14T02:38:35.469Z,30.20
2018-12-14T02:41:08.559Z,28.37
2018-12-14T02:43:41.581Z,25.33
2018-12-14T02:46:16.617Z,25.60
2018-12-14T02:48:51.854Z,25.33
2018-12-14T02:51:26.666Z,24.90
2018-12-14T02:53:59.357Z,26.93
2018-12-14T02:56:32.861Z,27.63
2018-12-14T02:59:05.548Z,25.23
2018-12-14T03:01:42.557Z,24.40
2018-12-14T03:04:15.699Z,27.60
2018-12-14T03:06:53.685Z,23.87
2018-12-14T03:09:31.070Z,27.73
2018-12-14T03:12:04.385Z,24.40
2018-12-14T03:14:42.575Z,23.07
2018-12-14T03:17:17.418Z,24.80
2018-12-14T03:19:54.193Z,27.10
2018-12-14T03:22:38.871Z,25.53
2018-12-14T03:25:20.745Z,25.97
2018-12-14T03:28:01.705Z,24.70
2018-12-14T03:30:37.385Z,25.20
2018-12-14T03:33:13.110Z,25.20
2018-12-14T03:35:52.060Z,24.97
2018-12-14T03:38:25.836Z,25.33
2018-12-14T03:41:02.835Z,25.97
2018-12-14T03:43:40.458Z,23.97
2018-12-14T03:46:15.152Z,24.70
2018-12-14T03:48:51.191Z,24.10
2018-12-14T03:51:28.438Z,22.73
2018-12-14T03:54:06.317Z,24.43
2018-12-14T03:56:39.470Z,24.23
2018-12-14T03:59:12.340Z,23.00
2018-12-14T04:01:45.043Z,22.93
2018-12-14T04:04:17.180Z,22.17
2018-12-14T04:06:50.186Z,22.43
2018-12-14T04:09:23.405Z,23.93
2018-12-14T04:11:56.500Z,24.43
2018-12-14T04:14:28.950Z,24.57
2018-12-14T04:17:02.015Z,24.03
2018-12-14T04:19:32.320Z,23.77
2018-12-14T04:22:05.431Z,23.23
2018-12-14T04:24:38.341Z,23.57
2018-12-14T04:27:11.234Z,24.47
2018-12-14T04:29:43.686Z,23.27
2018-12-14T04:32:16.725Z,23.00
2018-12-14T04:34:49.194Z,27.33
2018-12-14T04:37:26.573Z,22.43
2018-12-14T04:40:00.896Z,22.73
2018-12-14T04:42:34.126Z,25.67
2018-12-14T04:50:15.502Z,25.23
2018-12-14T04:52:48.867Z,24.53
2018-12-14T04:55:22.215Z,28.77
2018-12-14T04:57:55.584Z,27.73
2018-12-14T05:00:27.958Z,31.10
2018-12-14T05:03:02.632Z,30.77
2018-12-14T05:05:37.866Z,31.63
2018-12-14T05:08:10.903Z,28.67
2018-12-14T05:10:47.883Z,31.93
2018-12-14T05:13:23.201Z,32.53
2018-12-14T05:16:01.146Z,33.90
2018-12-14T05:18:39.854Z,29.97
2018-12-14T05:21:19.788Z,33.03
2018-12-14T05:23:57.535Z,32.33
2018-12-14T05:26:30.776Z,37.00
2018-12-14T05:29:17.050Z,38.00
2018-12-14T05:31:54.263Z,35.23
2018-12-14T05:34:28.118Z,36.30
2018-12-14T05:37:01.448Z,39.60
2018-12-14T05:39:41.567Z,38.13
2018-12-14T05:42:23.230Z,38.57
2018-12-14T05:44:57.606Z,39.17
2018-12-14T05:47:36.482Z,41.70
2018-12-14T06:12:51.860Z,52.47
2018-12-14T06:15:27.772Z,51.07
2018-12-14T06:18:05.630Z,48.83
2018-12-14T06:20:39.266Z,44.50
2018-12-14T06:23:16.231Z,47.00
2018-12-14T06:25:49.188Z,46.33
2018-12-14T06:28:22.642Z,45.93
2018-12-14T06:31:01.198Z,46.80
2018-12-14T06:33:35.758Z,49.70
2018-12-14T06:36:09.857Z,48.90
2018-12-14T06:38:43.961Z,45.53
2018-12-14T06:41:16.936Z,47.63
2018-12-14T06:43:47.880Z,46.57
2018-12-14T06:46:21.091Z,46.73
2018-12-14T06:48:55.346Z,49.70
2018-12-14T06:51:38.538Z,43.03
2018-12-14T06:54:15.761Z,44.93
2018-12-14T06:56:49.368Z,42.27
2018-12-14T06:59:27.900Z,44.17
2018-12-14T07:01:59.283Z,40.70
2018-12-14T07:04:32.540Z,38.77
2018-12-14T07:07:05.713Z,42.77
2018-12-14T07:09:38.514Z,41.00
2018-12-14T07:12:12.355Z,41.93
2018-12-14T07:14:49.955Z,41.20
2018-12-14T07:17:24.695Z,36.23
2018-12-14T07:19:58.663Z,42.23
2018-12-14T07:22:35.096Z,41.00
2018-12-14T07:25:09.155Z,42.13
2018-12-14T07:27:47.236Z,39.70
2018-12-14T07:30:21.634Z,46.47
2018-12-14T07:32:59.154Z,40.33
2018-12-14T07:35:32.779Z,34.17
2018-12-14T07:38:08.855Z,37.53
2018-12-14T07:40:42.072Z,31.03
2018-12-14T07:43:14.814Z,32.87
2018-12-14T07:45:50.883Z,34.17
2018-12-14T07:48:28.170Z,32.60
2018-12-14T07:51:00.942Z,32.47
2018-12-14T07:53:40.286Z,35.07
2018-12-14T07:56:18.748Z,32.80
2018-12-14T07:58:51.568Z,35.27
2018-12-14T08:01:24.412Z,31.40
2018-12-14T08:04:02.757Z,31.93
2018-12-14T08:06:36.212Z,32.97
2018-12-14T08:09:13.472Z,35.03
2018-12-14T08:11:47.930Z,36.20
2018-12-14T08:14:21.729Z,36.17
2018-12-14T08:16:59.120Z,37.33
2018-12-14T08:19:32.210Z,33.33
2018-12-14T08:22:06.045Z,35.17
2018-12-14T08:24:39.742Z,35.80
2018-12-14T08:27:12.683Z,32.63
2018-12-14T08:29:49.969Z,34.37
2018-12-14T08:32:22.272Z,34.73
2018-12-14T08:34:55.453Z,33.30
2018-12-14T08:37:32.566Z,32.87
2018-12-14T08:40:06.815Z,36.07
2018-12-14T08:42:39.668Z,35.90
2018-12-14T08:45:13.625Z,32.63
2018-12-14T08:47:46.968Z,39.13
2018-12-14T08:50:20.120Z,39.70
2018-12-14T08:52:53.219Z,33.97
2018-12-14T08:55:24.288Z,32.33
2018-12-14T08:57:57.226Z,30.27
2018-12-14T09:00:30.596Z,34.03
2018-12-14T09:03:07.799Z,32.40
2018-12-14T09:05:40.464Z,34.43
2018-12-14T09:08:12.770Z,28.23
2018-12-14T09:10:50.772Z,30.47
2018-12-14T09:13:29.647Z,32.00
2018-12-14T09:16:05.989Z,30.30
2018-12-14T09:18:43.927Z,30.30
2018-12-14T09:26:19.758Z,35.07
2018-12-14T09:28:53.907Z,28.83
2018-12-14T09:31:28.733Z,29.60
2018-12-14T09:34:01.204Z,31.40
2018-12-14T09:36:34.244Z,27.60
2018-12-14T09:39:09.144Z,29.93
2018-12-14T09:41:46.150Z,32.00
2018-12-14T09:44:24.386Z,31.00
2018-12-14T09:46:57.577Z,30.43
2018-12-14T09:49:30.906Z,28.27
2018-12-14T09:52:07.224Z,31.20
2018-12-14T09:54:41.340Z,29.50
2018-12-14T09:57:14.524Z,30.17
2018-12-14T09:59:50.754Z,26.50
2018-12-14T10:02:21.703Z,31.13
2018-12-14T10:04:59.282Z,29.63
2018-12-14T10:07:31.870Z,26.90
2018-12-14T10:10:06.796Z,31.60
2018-12-14T10:12:39.804Z,27.33
2018-12-14T10:15:13.095Z,27.33
2018-12-14T10:17:49.365Z,29.23
2018-12-14T10:20:23.467Z,27.90
2018-12-14T10:23:02.373Z,26.97
2018-12-14T10:25:39.550Z,27.23
2018-12-14T10:35:43.426Z,24.93
2018-12-14T10:38:16.637Z,26.47
2018-12-14T10:40:49.279Z,23.63
2018-12-14T10:43:21.874Z,23.97
2018-12-14T10:46:01.870Z,23.73
2018-12-14T10:48:35.019Z,23.73
2018-12-14T10:51:08.175Z,27.10
2018-12-14T10:53:41.393Z,29.07
2018-12-14T10:56:15.890Z,29.70
2018-12-14T10:58:52.256Z,28.20
2018-12-14T11:01:30.534Z,26.47
2018-12-14T11:04:03.323Z,28.43
2018-12-14T11:06:39.890Z,26.33
2018-12-14T11:09:17.784Z,29.30
2018-12-14T11:11:51.227Z,27.87
2018-12-14T11:14:24.126Z,24.77
2018-12-14T11:16:57.683Z,26.53
2018-12-14T11:19:34.834Z,28.20
2018-12-14T11:22:26.169Z,26.83
2018-12-14T11:25:03.302Z,30.03
2018-12-14T11:27:39.923Z,28.40
2018-12-14T11:30:17.378Z,29.97
2018-12-14T11:32:53.585Z,28.63
2018-12-14T11:35:29.839Z,31.20
2018-12-14T11:50:36.805Z,30.50
2018-12-14T11:53:18.050Z,28.63
2018-12-14T11:55:50.923Z,30.13
2018-12-14T11:58:29.209Z,29.00
2018-12-14T12:01:07.439Z,30.50
2018-12-14T12:03:42.965Z,31.23
2018-12-14T12:06:16.535Z,30.63
2018-12-14T12:08:53.548Z,33.43
2018-12-14T12:11:26.802Z,28.77
2018-12-14T12:14:00.127Z,34.50
2018-12-14T12:16:34.192Z,30.97
2018-12-14T12:19:12.328Z,32.63
2018-12-14T12:21:49.838Z,35.93
2018-12-14T12:24:28.148Z,32.43
2018-12-14T12:27:04.650Z,32.70
2018-12-14T12:29:38.094Z,32.73
2018-12-14T12:32:11.199Z,31.37
2018-12-14T12:34:47.814Z,35.07
2018-12-14T12:37:25.156Z,31.90
2018-12-14T12:39:59.438Z,29.60
2018-12-14T12:42:32.862Z,27.93
2018-12-14T12:45:07.729Z,31.87
2018-12-14T12:47:43.990Z,32.20
2018-12-14T12:50:17.493Z,32.50
2018-12-14T12:52:48.468Z,33.67
2018-12-14T12:55:25.431Z,33.70
2018-12-14T12:58:03.665Z,29.20
2018-12-14T13:00:34.788Z,28.73
2018-12-14T13:03:07.968Z,32.33
2018-12-14T13:05:41.770Z,30.70
2018-12-14T13:08:15.175Z,28.77
2018-12-14T13:10:52.003Z,32.80
2018-12-14T13:13:23.363Z,28.90
2018-12-14T13:15:56.997Z,30.33
2018-12-14T13:18:33.876Z,31.37
2018-12-14T13:21:07.046Z,31.33
2018-12-14T13:23:39.873Z,29.77
2018-12-14T13:26:12.888Z,30.40
2018-12-14T13:28:49.181Z,31.53
2018-12-14T13:31:21.577Z,30.60
2018-12-14T13:33:54.980Z,28.43
2018-12-14T13:36:28.097Z,30.83
2018-12-14T13:39:06.177Z,25.20
2018-12-14T13:41:36.794Z,29.00
2018-12-14T13:44:09.814Z,24.60
2018-12-14T13:46:42.955Z,23.93
2018-12-14T13:49:15.897Z,30.83
2018-12-14T13:51:52.625Z,26.57
2018-12-14T13:54:26.689Z,27.37
2018-12-14T13:57:03.868Z,31.03
2018-12-14T13:59:36.005Z,31.40
2018-12-14T14:02:08.236Z,28.27
2018-12-14T14:04:40.920Z,24.13
2018-12-14T14:07:13.095Z,23.10
2018-12-14T14:09:50.208Z,23.20
2018-12-14T14:12:30.848Z,21.33
2018-12-14T14:15:07.029Z,20.00
2018-12-14T14:17:44.090Z,20.80
2018-12-14T14:20:17.068Z,21.60
2018-12-14T14:22:49.453Z,20.97
2018-12-14T14:25:26.640Z,21.13
2018-12-14T14:27:59.917Z,22.83
2018-12-14T14:30:32.949Z,22.70
2018-12-14T14:33:10.050Z,23.27
2018-12-14T14:35:40.944Z,23.90
2018-12-14T14:38:17.059Z,21.43
2018-12-14T14:40:50.060Z,21.13
2018-12-14T14:43:22.551Z,24.90
2018-12-14T14:45:59.482Z,25.70
2018-12-14T14:48:35.862Z,25.27
2018-12-14T14:51:09.306Z,24.27
2018-12-14T14:53:41.725Z,22.93
2018-12-14T14:56:18.912Z,27.00
2018-12-14T14:58:55.133Z,21.23
2018-12-14T15:01:27.251Z,23.70
2018-12-14T15:04:00.261Z,23.33
2018-12-14T15:06:33.935Z,24.33
2018-12-14T15:09:10.723Z,24.23
2018-12-14T15:11:43.370Z,26.80
2018-12-14T15:14:15.571Z,27.20
2018-12-14T15:16:47.800Z,26.67
2018-12-14T15:19:25.130Z,29.73
2018-12-14T15:22:04.371Z,27.27
2018-12-14T15:24:36.478Z,28.87
2018-12-14T15:27:08.639Z,32.90
2018-12-14T15:29:45.077Z,29.63
2018-12-14T15:32:15.482Z,34.93
2018-12-14T15:34:51.513Z,31.67
2018-12-14T15:37:23.713Z,28.77
2018-12-14T15:39:59.851Z,34.87
2018-12-14T15:42:36.239Z,31.80
2018-12-14T15:45:13.256Z,29.13
2018-12-14T15:47:46.370Z,27.57
2018-12-14T15:50:22.434Z,22.70
2018-12-14T15:52:58.642Z,22.57
2018-12-14T15:55:30.924Z,23.73
2018-12-14T15:58:03.077Z,23.70
2018-12-14T16:13:18.661Z,27.50
2018-12-14T16:15:50.854Z,30.17
2018-12-14T16:18:22.980Z,31.60
2018-12-14T16:20:56.422Z,32.13
2018-12-14T16:23:28.406Z,32.20
2018-12-14T16:26:04.569Z,32.40
2018-12-14T16:28:37.084Z,28.30
2018-12-14T16:31:10.670Z,32.17
2018-12-14T16:33:43.607Z,29.20
2018-12-14T16:36:19.901Z,29.00
2018-12-14T16:38:56.160Z,26.13
2018-12-14T16:41:32.520Z,25.90
2018-12-14T16:44:05.518Z,26.67
2018-12-14T16:46:37.839Z,24.17
2018-12-14T16:49:10.559Z,28.80
2018-12-14T16:51:43.394Z,24.97
2018-12-14T16:54:16.261Z,25.37
2018-12-14T16:56:52.486Z,26.37
2018-12-14T16:59:24.590Z,26.77
2018-12-14T17:01:56.915Z,31.17
2018-12-14T17:04:29.348Z,29.73
2018-12-14T17:07:02.165Z,30.47
2018-12-14T17:09:38.343Z,31.33
2018-12-14T17:12:14.659Z,29.37
2018-12-14T17:17:32.872Z,33.37
2018-12-14T17:20:10.480Z,31.53
2018-12-14T17:22:50.779Z,34.70
2018-12-14T17:25:25.702Z,31.90
2018-12-14T17:28:06.526Z,33.40
2018-12-14T17:30:44.173Z,31.60
2018-12-14T17:33:19.018Z,30.00
2018-12-14T17:35:55.122Z,29.10
2018-12-14T17:38:35.386Z,31.07
2018-12-14T17:41:08.617Z,27.17
2018-12-14T17:43:51.353Z,28.87
2018-12-14T17:46:25.629Z,28.13
2018-12-14T17:48:59.107Z,27.90
2018-12-14T17:51:36.849Z,26.70
2018-12-14T17:54:19.327Z,26.70
2018-12-14T17:56:53.955Z,23.30
2018-12-14T17:59:27.263Z,21.53
2018-12-14T18:02:04.135Z,20.00
2018-12-14T18:04:37.500Z,22.77
2018-12-14T18:07:09.583Z,19.23
2018-12-14T18:09:44.225Z,20.20
2018-12-14T18:12:22.097Z,19.43
2018-12-14T18:14:59.452Z,22.30
2018-12-14T18:17:32.451Z,22.07
2018-12-14T18:20:06.418Z,21.67
2018-12-14T18:22:39.310Z,23.23
2018-12-14T18:25:16.758Z,21.17
2018-12-14T18:27:49.748Z,22.23
2018-12-14T18:30:23.786Z,22.47
2018-12-14T18:33:00.216Z,23.67
2018-12-14T18:35:38.632Z,20.70
2018-12-14T18:38:11.523Z,23.53
2018-12-14T18:40:47.880Z,22.40
2018-12-14T18:43:24.121Z,23.03
2018-12-14T18:46:02.943Z,24.37
2018-12-14T18:48:40.033Z,21.77
2018-12-14T18:51:16.646Z,19.87
2018-12-14T18:53:56.374Z,21.63
2018-12-14T18:56:29.599Z,20.43
2018-12-14T18:59:02.769Z,20.40
2018-12-14T19:03:23.988Z,20.33
2018-12-14T19:05:57.177Z,22.10
2018-12-14T19:08:30.143Z,20.63
2018-12-14T19:11:02.632Z,20.43
2018-12-14T19:13:35.632Z,21.50
2018-12-14T19:16:11.901Z,25.20
2018-12-14T19:18:48.131Z,19.80
2018-12-14T19:22:58.989Z,19.43
2018-12-14T19:25:31.904Z,22.77
2018-12-14T19:28:06.653Z,21.13
2018-12-14T19:30:39.438Z,21.03
2018-12-14T19:34:40.437Z,22.77
2018-12-14T19:40:28.817Z,7.27
2018-12-14T19:46:52.837Z,13.13
2018-12-14T19:49:25.086Z,13.17
2018-12-14T19:52:01.724Z,11.63
2018-12-14T19:54:34.591Z,14.20
2018-12-14T19:57:06.777Z,13.80
2018-12-14T19:59:38.950Z,13.37
2018-12-14T20:02:12.074Z,15.33
2018-12-14T20:04:48.778Z,14.03
2018-12-14T20:07:21.399Z,15.17
2018-12-14T20:09:53.697Z,18.93
2018-12-14T20:12:26.420Z,20.73
2018-12-14T20:15:02.557Z,21.63
2018-12-14T20:17:39.759Z,19.30
2018-12-14T20:20:10.188Z,21.87
2018-12-14T20:22:46.564Z,24.17
2018-12-14T20:25:19.440Z,24.80
2018-12-14T20:27:56.602Z,23.73
2018-12-14T20:30:29.655Z,28.10
2018-12-14T20:33:01.896Z,27.17
2018-12-14T20:35:39.120Z,27.97
2018-12-14T20:38:12.194Z,27.53
2018-12-14T20:40:48.446Z,28.97
2018-12-14T20:43:21.031Z,27.73
2018-12-14T20:45:57.948Z,28.03
2018-12-14T20:48:28.189Z,26.20
2018-12-14T20:51:04.370Z,28.63
2018-12-14T20:53:37.894Z,27.90
2018-12-14T20:56:15.769Z,29.80
2018-12-14T20:58:48.436Z,26.50
2018-12-14T21:01:22.377Z,27.10
2018-12-14T21:03:55.565Z,27.10
2018-12-14T21:06:29.219Z,27.43
2018-12-14T21:09:02.413Z,27.63
2018-12-14T21:11:38.766Z,28.97
2018-12-14T21:14:19.850Z,29.90
2018-12-14T21:16:55.462Z,30.50
2018-12-14T21:19:32.719Z,30.47
2018-12-14T21:22:11.711Z,30.80
2018-12-14T21:24:45.795Z,31.07
2018-12-14T21:27:19.112Z,29.53
2018-12-14T21:29:52.126Z,25.43
2018-12-14T21:32:24.919Z,26.00
2018-12-14T21:34:59.324Z,23.70
2018-12-14T21:37:30.871Z,25.47
2018-12-14T21:40:04.373Z,26.10
2018-12-14T21:42:37.101Z,26.47
2018-12-14T21:45:24.727Z,27.47
2018-12-14T21:47:59.373Z,27.83
2018-12-14T21:50:39.912Z,27.87
2018-12-14T21:53:17.620Z,29.03
2018-12-14T21:55:55.744Z,27.43
2018-12-14T21:58:36.642Z,29.60
2018-12-14T22:01:12.562Z,27.17
2018-12-14T22:03:57.163Z,28.53
2018-12-14T22:06:36.262Z,27.40
2018-12-14T22:09:18.755Z,29.03
2018-12-14T22:11:57.125Z,31.23
2018-12-14T22:14:37.096Z,28.27
2018-12-14T22:17:09.876Z,29.13
2018-12-14T22:19:53.601Z,27.30
2018-12-14T22:22:37.865Z,29.70
2018-12-14T22:25:12.235Z,26.33
2018-12-14T22:27:48.607Z,27.93
2018-12-14T22:30:25.388Z,28.27
2018-12-14T22:32:57.740Z,24.63
2018-12-14T22:35:34.756Z,28.17
2018-12-14T22:38:07.630Z,26.90
2018-12-14T22:40:40.691Z,29.13
2018-12-14T22:43:13.057Z,32.40
2018-12-14T22:45:45.331Z,34.00
2018-12-14T22:48:21.980Z,29.97
2018-12-14T22:50:54.957Z,29.07
2018-12-14T22:53:27.260Z,28.87
2018-12-14T22:56:03.433Z,29.43
2018-12-14T22:58:40.098Z,29.93
2018-12-14T23:01:12.747Z,32.43
2018-12-14T23:03:49.626Z,31.33
2018-12-14T23:06:20.698Z,28.97
2018-12-14T23:08:57.706Z,31.97
2018-12-14T23:11:29.853Z,30.53
2018-12-14T23:14:03.058Z,31.57
2018-12-14T23:16:33.324Z,31.17
2018-12-14T23:19:06.447Z,29.63
2018-12-14T23:21:39.623Z,29.10
2018-12-14T23:24:12.700Z,27.67
2018-12-14T23:26:44.831Z,30.33
2018-12-14T23:29:17.154Z,30.03
2018-12-14T23:31:49.581Z,28.63
2018-12-14T23:34:21.697Z,28.17
2018-12-14T23:36:53.939Z,25.80
2018-12-14T23:39:24.668Z,29.57
2018-12-14T23:41:57.324Z,27.10
2018-12-14T23:44:29.670Z,29.33
2018-12-14T23:47:06.648Z,26.67
2018-12-14T23:49:43.071Z,27.23
2018-12-14T23:52:19.154Z,27.77
2018-12-14T23:54:51.336Z,28.30
2018-12-14T23:57:27.621Z,28.47
